sensor_id;sensor_type;location;lat;lon;timestamp;P1;durP1;ratioP1;P2;durP2;ratioP2
21521;SDS011;10922;45.572;10.002;2023-02-04T00:00:54;36.45;;;24.77;;
21521;SDS011;10922;45.572;10.002;2023-02-04T00:03:20;31.80;;;23.77;;
21521;SDS011;10922;45.572;10.002;2023-02-04T00:05:46;24.83;;;17.40;;
21521;SDS011;10922;45.572;10.002;2023-02-04T00:08:11;24.90;;;17.27;;
21521;SDS011;10922;45.572;10.002;2023-02-04T00:10:37;22.05;;;16.73;;
21521;SDS011;10922;45.572;10.002;2023-02-04T00:13:09;20.73;;;15.32;;
21521;SDS011;10922;45.572;10.002;2023-02-04T00:15:35;22.80;;;14.97;;
21521;SDS011;10922;45.572;10.002;2023-02-04T00:18:00;21.98;;;15.45;;
21521;SDS011;10922;45.572;10.002;2023-02-04T00:20:27;23.02;;;15.57;;
21521;SDS011;10922;45.572;10.002;2023-02-04T00:22:52;20.05;;;14.68;;
21521;SDS011;10922;45.572;10.002;2023-02-04T00:25:18;21.63;;;14.80;;
21521;SDS011;10922;45.572;10.002;2023-02-04T00:27:44;22.88;;;15.35;;
21521;SDS011;10922;45.572;10.002;2023-02-04T00:30:10;23.37;;;15.80;;
21521;SDS011;10922;45.572;10.002;2023-02-04T00:32:36;20.77;;;15.13;;
21521;SDS011;10922;45.572;10.002;2023-02-04T00:35:02;23.43;;;15.70;;
21521;SDS011;10922;45.572;10.002;2023-02-04T00:37:29;20.50;;;14.90;;
21521;SDS011;10922;45.572;10.002;2023-02-04T00:39:55;18.50;;;14.48;;
21521;SDS011;10922;45.572;10.002;2023-02-04T00:42:21;23.23;;;15.93;;
21521;SDS011;10922;45.572;10.002;2023-02-04T00:44:47;22.65;;;15.35;;
21521;SDS011;10922;45.572;10.002;2023-02-04T00:47:12;24.13;;;16.05;;
21521;SDS011;10922;45.572;10.002;2023-02-04T00:49:38;26.27;;;19.13;;
21521;SDS011;10922;45.572;10.002;2023-02-04T00:52:04;25.63;;;18.00;;
21521;SDS011;10922;45.572;10.002;2023-02-04T00:54:29;24.85;;;17.98;;
21521;SDS011;10922;45.572;10.002;2023-02-04T00:56:56;28.40;;;18.58;;
21521;SDS011;10922;45.572;10.002;2023-02-04T00:59:22;26.13;;;18.17;;
21521;SDS011;10922;45.572;10.002;2023-02-04T01:01:48;27.02;;;18.85;;
21521;SDS011;10922;45.572;10.002;2023-02-04T01:04:13;27.07;;;19.30;;
21521;SDS011;10922;45.572;10.002;2023-02-04T01:06:39;30.40;;;21.10;;
21521;SDS011;10922;45.572;10.002;2023-02-04T01:09:05;27.95;;;20.85;;
21521;SDS011;10922;45.572;10.002;2023-02-04T01:11:30;30.93;;;21.23;;
21521;SDS011;10922;45.572;10.002;2023-02-04T01:13:57;34.95;;;25.30;;
21521;SDS011;10922;45.572;10.002;2023-02-04T01:16:22;36.97;;;25.77;;
21521;SDS011;10922;45.572;10.002;2023-02-04T01:18:48;37.40;;;26.08;;
21521;SDS011;10922;45.572;10.002;2023-02-04T01:21:14;40.10;;;25.40;;
21521;SDS011;10922;45.572;10.002;2023-02-04T01:23:40;41.20;;;28.10;;
21521;SDS011;10922;45.572;10.002;2023-02-04T01:26:05;41.20;;;28.70;;
21521;SDS011;10922;45.572;10.002;2023-02-04T01:28:31;41.23;;;28.20;;
21521;SDS011;10922;45.572;10.002;2023-02-04T01:30:57;40.57;;;28.83;;
21521;SDS011;10922;45.572;10.002;2023-02-04T01:33:22;42.72;;;29.60;;
21521;SDS011;10922;45.572;10.002;2023-02-04T01:35:48;43.10;;;29.55;;
21521;SDS011;10922;45.572;10.002;2023-02-04T01:38:13;42.83;;;29.83;;
21521;SDS011;10922;45.572;10.002;2023-02-04T01:40:40;46.00;;;30.02;;
21521;SDS011;10922;45.572;10.002;2023-02-04T01:43:07;43.20;;;30.33;;
21521;SDS011;10922;45.572;10.002;2023-02-04T01:45:33;42.78;;;29.05;;
21521;SDS011;10922;45.572;10.002;2023-02-04T01:48:00;41.63;;;29.23;;
21521;SDS011;10922;45.572;10.002;2023-02-04T01:50:29;41.63;;;28.88;;
21521;SDS011;10922;45.572;10.002;2023-02-04T01:52:55;40.13;;;28.85;;
21521;SDS011;10922;45.572;10.002;2023-02-04T01:55:23;43.50;;;30.30;;
21521;SDS011;10922;45.572;10.002;2023-02-04T01:57:51;42.65;;;29.20;;
21521;SDS011;10922;45.572;10.002;2023-02-04T02:00:27;40.53;;;27.65;;
21521;SDS011;10922;45.572;10.002;2023-02-04T02:02:54;41.92;;;27.73;;
21521;SDS011;10922;45.572;10.002;2023-02-04T02:05:26;35.25;;;25.10;;
21521;SDS011;10922;45.572;10.002;2023-02-04T02:07:57;36.17;;;24.60;;
21521;SDS011;10922;45.572;10.002;2023-02-04T02:10:24;32.27;;;24.33;;
21521;SDS011;10922;45.572;10.002;2023-02-04T02:12:50;39.40;;;27.80;;
21521;SDS011;10922;45.572;10.002;2023-02-04T02:15:23;38.07;;;27.90;;
21521;SDS011;10922;45.572;10.002;2023-02-04T02:17:49;39.97;;;28.33;;
21521;SDS011;10922;45.572;10.002;2023-02-04T02:20:19;43.95;;;29.67;;
21521;SDS011;10922;45.572;10.002;2023-02-04T02:23:06;39.08;;;27.60;;
21521;SDS011;10922;45.572;10.002;2023-02-04T02:25:37;37.65;;;25.98;;
21521;SDS011;10922;45.572;10.002;2023-02-04T02:28:05;35.67;;;25.30;;
21521;SDS011;10922;45.572;10.002;2023-02-04T02:30:35;32.80;;;23.23;;
21521;SDS011;10922;45.572;10.002;2023-02-04T02:33:01;34.63;;;24.98;;
21521;SDS011;10922;45.572;10.002;2023-02-04T02:35:27;37.08;;;25.08;;
21521;SDS011;10922;45.572;10.002;2023-02-04T02:37:53;36.50;;;24.00;;
21521;SDS011;10922;45.572;10.002;2023-02-04T02:40:19;33.60;;;24.10;;
21521;SDS011;10922;45.572;10.002;2023-02-04T02:42:45;35.50;;;24.50;;
21521;SDS011;10922;45.572;10.002;2023-02-04T02:45:24;33.95;;;24.52;;
21521;SDS011;10922;45.572;10.002;2023-02-04T02:47:52;34.53;;;23.42;;
21521;SDS011;10922;45.572;10.002;2023-02-04T02:50:20;33.33;;;22.63;;
21521;SDS011;10922;45.572;10.002;2023-02-04T02:52:50;31.80;;;21.67;;
21521;SDS011;10922;45.572;10.002;2023-02-04T02:55:16;31.25;;;21.55;;
21521;SDS011;10922;45.572;10.002;2023-02-04T02:57:44;30.13;;;22.07;;
21521;SDS011;10922;45.572;10.002;2023-02-04T03:00:15;29.73;;;21.30;;
21521;SDS011;10922;45.572;10.002;2023-02-04T03:02:54;28.52;;;20.40;;
21521;SDS011;10922;45.572;10.002;2023-02-04T03:05:27;32.97;;;22.63;;
21521;SDS011;10922;45.572;10.002;2023-02-04T03:07:56;31.52;;;21.67;;
21521;SDS011;10922;45.572;10.002;2023-02-04T03:10:21;30.85;;;21.63;;
21521;SDS011;10922;45.572;10.002;2023-02-04T03:12:47;27.90;;;19.70;;
21521;SDS011;10922;45.572;10.002;2023-02-04T03:15:13;27.30;;;20.67;;
21521;SDS011;10922;45.572;10.002;2023-02-04T03:17:39;31.08;;;20.02;;
21521;SDS011;10922;45.572;10.002;2023-02-04T03:20:05;29.30;;;20.13;;
21521;SDS011;10922;45.572;10.002;2023-02-04T03:22:33;28.95;;;20.70;;
21521;SDS011;10922;45.572;10.002;2023-02-04T03:24:59;28.42;;;20.15;;
21521;SDS011;10922;45.572;10.002;2023-02-04T03:27:25;27.70;;;20.25;;
21521;SDS011;10922;45.572;10.002;2023-02-04T03:29:50;32.73;;;23.13;;
21521;SDS011;10922;45.572;10.002;2023-02-04T03:32:16;33.70;;;21.98;;
21521;SDS011;10922;45.572;10.002;2023-02-04T03:34:42;31.13;;;21.30;;
21521;SDS011;10922;45.572;10.002;2023-02-04T03:37:07;31.38;;;21.20;;
21521;SDS011;10922;45.572;10.002;2023-02-04T03:39:33;29.27;;;21.80;;
21521;SDS011;10922;45.572;10.002;2023-02-04T03:41:59;33.03;;;22.55;;
21521;SDS011;10922;45.572;10.002;2023-02-04T03:44:24;35.22;;;24.65;;
21521;SDS011;10922;45.572;10.002;2023-02-04T03:46:51;33.90;;;22.85;;
21521;SDS011;10922;45.572;10.002;2023-02-04T03:49:19;34.88;;;22.85;;
21521;SDS011;10922;45.572;10.002;2023-02-04T03:51:46;34.60;;;23.98;;
21521;SDS011;10922;45.572;10.002;2023-02-04T03:54:11;32.45;;;23.92;;
21521;SDS011;10922;45.572;10.002;2023-02-04T03:56:37;30.05;;;21.02;;
21521;SDS011;10922;45.572;10.002;2023-02-04T03:59:03;28.17;;;20.80;;
21521;SDS011;10922;45.572;10.002;2023-02-04T04:01:28;30.33;;;21.55;;
21521;SDS011;10922;45.572;10.002;2023-02-04T04:03:54;27.83;;;21.40;;
21521;SDS011;10922;45.572;10.002;2023-02-04T04:06:20;31.13;;;21.75;;
21521;SDS011;10922;45.572;10.002;2023-02-04T04:08:45;32.13;;;22.92;;
21521;SDS011;10922;45.572;10.002;2023-02-04T04:11:11;32.47;;;21.70;;
21521;SDS011;10922;45.572;10.002;2023-02-04T04:13:37;32.28;;;21.92;;
21521;SDS011;10922;45.572;10.002;2023-02-04T04:16:02;30.67;;;22.67;;
21521;SDS011;10922;45.572;10.002;2023-02-04T04:18:29;33.35;;;21.73;;
21521;SDS011;10922;45.572;10.002;2023-02-04T04:20:56;32.03;;;22.67;;
21521;SDS011;10922;45.572;10.002;2023-02-04T04:23:22;34.10;;;24.98;;
21521;SDS011;10922;45.572;10.002;2023-02-04T04:25:48;35.70;;;24.37;;
21521;SDS011;10922;45.572;10.002;2023-02-04T04:28:13;36.38;;;24.92;;
21521;SDS011;10922;45.572;10.002;2023-02-04T04:30:39;35.83;;;23.40;;
21521;SDS011;10922;45.572;10.002;2023-02-04T04:33:05;34.77;;;24.27;;
21521;SDS011;10922;45.572;10.002;2023-02-04T04:35:30;33.40;;;23.33;;
21521;SDS011;10922;45.572;10.002;2023-02-04T04:37:56;32.23;;;23.07;;
21521;SDS011;10922;45.572;10.002;2023-02-04T04:40:22;32.40;;;23.05;;
21521;SDS011;10922;45.572;10.002;2023-02-04T04:42:47;32.22;;;22.85;;
21521;SDS011;10922;45.572;10.002;2023-02-04T04:45:13;35.27;;;23.77;;
21521;SDS011;10922;45.572;10.002;2023-02-04T04:47:38;33.47;;;24.15;;
21521;SDS011;10922;45.572;10.002;2023-02-04T04:50:04;34.80;;;24.15;;
21521;SDS011;10922;45.572;10.002;2023-02-04T04:52:30;35.72;;;24.55;;
21521;SDS011;10922;45.572;10.002;2023-02-04T04:54:56;34.60;;;23.30;;
21521;SDS011;10922;45.572;10.002;2023-02-04T04:57:21;33.13;;;23.98;;
21521;SDS011;10922;45.572;10.002;2023-02-04T04:59:47;36.65;;;24.50;;
21521;SDS011;10922;45.572;10.002;2023-02-04T05:02:13;35.13;;;24.03;;
21521;SDS011;10922;45.572;10.002;2023-02-04T05:04:38;36.53;;;25.08;;
21521;SDS011;10922;45.572;10.002;2023-02-04T05:07:04;37.30;;;24.58;;
21521;SDS011;10922;45.572;10.002;2023-02-04T05:09:29;34.03;;;24.73;;
21521;SDS011;10922;45.572;10.002;2023-02-04T05:11:55;35.67;;;24.63;;
21521;SDS011;10922;45.572;10.002;2023-02-04T05:14:21;34.13;;;24.10;;
21521;SDS011;10922;45.572;10.002;2023-02-04T05:16:46;34.87;;;23.97;;
21521;SDS011;10922;45.572;10.002;2023-02-04T05:19:12;35.47;;;24.00;;
21521;SDS011;10922;45.572;10.002;2023-02-04T05:21:37;33.93;;;24.07;;
21521;SDS011;10922;45.572;10.002;2023-02-04T05:24:04;36.53;;;24.65;;
21521;SDS011;10922;45.572;10.002;2023-02-04T05:26:30;35.80;;;25.60;;
21521;SDS011;10922;45.572;10.002;2023-02-04T05:28:57;34.13;;;25.17;;
21521;SDS011;10922;45.572;10.002;2023-02-04T05:31:26;33.80;;;23.98;;
21521;SDS011;10922;45.572;10.002;2023-02-04T05:33:52;34.93;;;24.40;;
21521;SDS011;10922;45.572;10.002;2023-02-04T05:36:18;35.38;;;24.20;;
21521;SDS011;10922;45.572;10.002;2023-02-04T05:38:44;33.20;;;23.23;;
21521;SDS011;10922;45.572;10.002;2023-02-04T05:41:10;33.67;;;24.00;;
21521;SDS011;10922;45.572;10.002;2023-02-04T05:43:35;32.97;;;24.17;;
21521;SDS011;10922;45.572;10.002;2023-02-04T05:46:01;29.50;;;22.60;;
21521;SDS011;10922;45.572;10.002;2023-02-04T05:48:27;33.63;;;23.07;;
21521;SDS011;10922;45.572;10.002;2023-02-04T05:50:52;33.03;;;23.08;;
21521;SDS011;10922;45.572;10.002;2023-02-04T05:53:18;32.00;;;23.33;;
21521;SDS011;10922;45.572;10.002;2023-02-04T05:55:44;33.38;;;23.60;;
21521;SDS011;10922;45.572;10.002;2023-02-04T05:58:09;50.37;;;33.83;;
21521;SDS011;10922;45.572;10.002;2023-02-04T06:00:35;36.00;;;25.50;;
21521;SDS011;10922;45.572;10.002;2023-02-04T06:03:00;36.05;;;28.25;;
21521;SDS011;10922;45.572;10.002;2023-02-04T06:05:26;33.70;;;24.17;;
21521;SDS011;10922;45.572;10.002;2023-02-04T06:07:52;41.00;;;26.55;;
21521;SDS011;10922;45.572;10.002;2023-02-04T06:10:17;36.53;;;23.23;;
21521;SDS011;10922;45.572;10.002;2023-02-04T06:12:45;35.53;;;24.55;;
21521;SDS011;10922;45.572;10.002;2023-02-04T06:15:14;35.50;;;24.17;;
21521;SDS011;10922;45.572;10.002;2023-02-04T06:17:40;33.72;;;23.95;;
21521;SDS011;10922;45.572;10.002;2023-02-04T06:20:06;31.95;;;23.30;;
21521;SDS011;10922;45.572;10.002;2023-02-04T06:22:32;35.22;;;23.05;;
21521;SDS011;10922;45.572;10.002;2023-02-04T06:24:58;32.75;;;23.38;;
21521;SDS011;10922;45.572;10.002;2023-02-04T06:27:24;36.43;;;24.37;;
21521;SDS011;10922;45.572;10.002;2023-02-04T06:29:50;34.22;;;23.45;;
21521;SDS011;10922;45.572;10.002;2023-02-04T06:32:16;32.95;;;24.08;;
21521;SDS011;10922;45.572;10.002;2023-02-04T06:34:42;33.67;;;23.90;;
21521;SDS011;10922;45.572;10.002;2023-02-04T06:37:08;38.15;;;24.25;;
21521;SDS011;10922;45.572;10.002;2023-02-04T06:39:34;33.95;;;22.83;;
21521;SDS011;10922;45.572;10.002;2023-02-04T06:42:00;36.35;;;23.73;;
21521;SDS011;10922;45.572;10.002;2023-02-04T06:44:26;38.35;;;24.83;;
21521;SDS011;10922;45.572;10.002;2023-02-04T06:46:52;33.63;;;22.83;;
21521;SDS011;10922;45.572;10.002;2023-02-04T06:49:17;35.65;;;25.65;;
21521;SDS011;10922;45.572;10.002;2023-02-04T06:51:43;38.33;;;24.07;;
21521;SDS011;10922;45.572;10.002;2023-02-04T06:54:09;49.03;;;25.45;;
21521;SDS011;10922;45.572;10.002;2023-02-04T06:56:34;41.47;;;26.83;;
21521;SDS011;10922;45.572;10.002;2023-02-04T06:59:00;39.42;;;26.33;;
21521;SDS011;10922;45.572;10.002;2023-02-04T07:01:26;39.03;;;24.77;;
21521;SDS011;10922;45.572;10.002;2023-02-04T07:03:51;38.93;;;25.13;;
21521;SDS011;10922;45.572;10.002;2023-02-04T07:06:17;43.42;;;24.75;;
21521;SDS011;10922;45.572;10.002;2023-02-04T07:08:42;41.53;;;25.20;;
21521;SDS011;10922;45.572;10.002;2023-02-04T07:11:08;37.83;;;24.63;;
21521;SDS011;10922;45.572;10.002;2023-02-04T07:13:34;39.67;;;24.75;;
21521;SDS011;10922;45.572;10.002;2023-02-04T07:15:59;39.60;;;25.57;;
21521;SDS011;10922;45.572;10.002;2023-02-04T07:18:25;38.80;;;24.13;;
21521;SDS011;10922;45.572;10.002;2023-02-04T07:20:53;44.58;;;25.63;;
21521;SDS011;10922;45.572;10.002;2023-02-04T07:23:19;37.53;;;23.73;;
21521;SDS011;10922;45.572;10.002;2023-02-04T07:25:44;36.88;;;24.40;;
21521;SDS011;10922;45.572;10.002;2023-02-04T07:28:14;39.53;;;25.48;;
21521;SDS011;10922;45.572;10.002;2023-02-04T07:30:40;37.55;;;24.33;;
21521;SDS011;10922;45.572;10.002;2023-02-04T07:33:05;35.70;;;23.20;;
21521;SDS011;10922;45.572;10.002;2023-02-04T07:35:31;32.00;;;22.93;;
21521;SDS011;10922;45.572;10.002;2023-02-04T07:37:56;33.72;;;23.13;;
21521;SDS011;10922;45.572;10.002;2023-02-04T07:40:22;37.88;;;23.13;;
21521;SDS011;10922;45.572;10.002;2023-02-04T07:42:48;36.47;;;23.30;;
21521;SDS011;10922;45.572;10.002;2023-02-04T07:45:13;35.87;;;23.63;;
21521;SDS011;10922;45.572;10.002;2023-02-04T07:47:39;33.85;;;23.48;;
21521;SDS011;10922;45.572;10.002;2023-02-04T07:50:08;32.78;;;22.13;;
21521;SDS011;10922;45.572;10.002;2023-02-04T07:56:00;34.30;;;22.98;;
21521;SDS011;10922;45.572;10.002;2023-02-04T07:58:25;35.65;;;23.40;;
21521;SDS011;10922;45.572;10.002;2023-02-04T08:00:51;34.80;;;23.10;;
21521;SDS011;10922;45.572;10.002;2023-02-04T08:03:17;34.63;;;23.13;;
21521;SDS011;10922;45.572;10.002;2023-02-04T08:05:42;33.58;;;21.67;;
21521;SDS011;10922;45.572;10.002;2023-02-04T08:08:08;32.70;;;21.42;;
21521;SDS011;10922;45.572;10.002;2023-02-04T08:10:37;31.83;;;22.10;;
21521;SDS011;10922;45.572;10.002;2023-02-04T08:13:02;36.72;;;22.67;;
21521;SDS011;10922;45.572;10.002;2023-02-04T08:15:28;29.23;;;21.20;;
21521;SDS011;10922;45.572;10.002;2023-02-04T08:17:54;32.03;;;21.93;;
21521;SDS011;10922;45.572;10.002;2023-02-04T08:20:19;32.75;;;21.90;;
21521;SDS011;10922;45.572;10.002;2023-02-04T08:22:45;33.27;;;22.10;;
21521;SDS011;10922;45.572;10.002;2023-02-04T08:25:13;36.38;;;22.42;;
21521;SDS011;10922;45.572;10.002;2023-02-04T08:27:38;31.13;;;20.90;;
21521;SDS011;10922;45.572;10.002;2023-02-04T08:30:04;33.30;;;22.33;;
21521;SDS011;10922;45.572;10.002;2023-02-04T08:32:30;33.50;;;22.00;;
21521;SDS011;10922;45.572;10.002;2023-02-04T08:34:56;35.93;;;23.00;;
21521;SDS011;10922;45.572;10.002;2023-02-04T08:37:22;35.50;;;22.42;;
21521;SDS011;10922;45.572;10.002;2023-02-04T08:39:48;33.05;;;20.48;;
21521;SDS011;10922;45.572;10.002;2023-02-04T08:42:14;28.45;;;19.77;;
21521;SDS011;10922;45.572;10.002;2023-02-04T08:44:41;29.40;;;19.60;;
21521;SDS011;10922;45.572;10.002;2023-02-04T08:47:07;31.10;;;19.00;;
21521;SDS011;10922;45.572;10.002;2023-02-04T08:49:33;28.00;;;18.37;;
21521;SDS011;10922;45.572;10.002;2023-02-04T08:52:00;28.77;;;19.13;;
21521;SDS011;10922;45.572;10.002;2023-02-04T08:54:27;24.50;;;18.55;;
21521;SDS011;10922;45.572;10.002;2023-02-04T08:56:53;25.10;;;17.83;;
21521;SDS011;10922;45.572;10.002;2023-02-04T08:59:18;23.38;;;16.52;;
21521;SDS011;10922;45.572;10.002;2023-02-04T09:01:46;24.85;;;17.33;;
21521;SDS011;10922;45.572;10.002;2023-02-04T09:04:13;22.97;;;16.37;;
21521;SDS011;10922;45.572;10.002;2023-02-04T09:06:39;25.00;;;16.48;;
21521;SDS011;10922;45.572;10.002;2023-02-04T09:09:05;26.37;;;16.67;;
21521;SDS011;10922;45.572;10.002;2023-02-04T09:11:30;22.15;;;16.55;;
21521;SDS011;10922;45.572;10.002;2023-02-04T09:13:56;21.63;;;15.60;;
21521;SDS011;10922;45.572;10.002;2023-02-04T09:16:22;25.17;;;16.20;;
21521;SDS011;10922;45.572;10.002;2023-02-04T09:18:48;21.85;;;15.90;;
21521;SDS011;10922;45.572;10.002;2023-02-04T09:21:14;23.80;;;16.73;;
21521;SDS011;10922;45.572;10.002;2023-02-04T09:23:39;22.58;;;16.67;;
21521;SDS011;10922;45.572;10.002;2023-02-04T09:26:11;24.17;;;16.55;;
21521;SDS011;10922;45.572;10.002;2023-02-04T09:28:37;24.65;;;16.52;;
21521;SDS011;10922;45.572;10.002;2023-02-04T09:31:03;24.33;;;16.92;;
21521;SDS011;10922;45.572;10.002;2023-02-04T09:33:30;24.50;;;17.73;;
21521;SDS011;10922;45.572;10.002;2023-02-04T09:35:56;24.30;;;17.25;;
21521;SDS011;10922;45.572;10.002;2023-02-04T09:38:22;27.02;;;17.10;;
21521;SDS011;10922;45.572;10.002;2023-02-04T09:40:52;22.55;;;16.15;;
21521;SDS011;10922;45.572;10.002;2023-02-04T09:43:23;26.55;;;16.38;;
21521;SDS011;10922;45.572;10.002;2023-02-04T09:45:51;24.70;;;16.73;;
21521;SDS011;10922;45.572;10.002;2023-02-04T09:48:18;24.85;;;16.70;;
21521;SDS011;10922;45.572;10.002;2023-02-04T09:50:48;25.00;;;16.92;;
21521;SDS011;10922;45.572;10.002;2023-02-04T09:56:52;21.48;;;16.10;;
21521;SDS011;10922;45.572;10.002;2023-02-04T09:59:19;23.23;;;16.02;;
21521;SDS011;10922;45.572;10.002;2023-02-04T10:02:18;22.50;;;16.45;;
21521;SDS011;10922;45.572;10.002;2023-02-04T10:04:46;28.43;;;17.20;;
21521;SDS011;10922;45.572;10.002;2023-02-04T10:07:12;25.73;;;17.42;;
21521;SDS011;10922;45.572;10.002;2023-02-04T10:13:13;20.33;;;15.05;;
21521;SDS011;10922;45.572;10.002;2023-02-04T10:16:02;23.77;;;15.40;;
21521;SDS011;10922;45.572;10.002;2023-02-04T10:18:34;24.25;;;15.68;;
21521;SDS011;10922;45.572;10.002;2023-02-04T10:21:14;22.75;;;14.70;;
21521;SDS011;10922;45.572;10.002;2023-02-04T10:23:43;21.70;;;14.23;;
21521;SDS011;10922;45.572;10.002;2023-02-04T10:26:12;18.77;;;13.93;;
21521;SDS011;10922;45.572;10.002;2023-02-04T10:28:39;20.00;;;13.57;;
21521;SDS011;10922;45.572;10.002;2023-02-04T10:41:03;19.02;;;11.27;;
21521;SDS011;10922;45.572;10.002;2023-02-04T10:43:35;14.00;;;10.27;;
21521;SDS011;10922;45.572;10.002;2023-02-04T10:46:01;14.63;;;10.67;;
21521;SDS011;10922;45.572;10.002;2023-02-04T10:48:27;15.63;;;10.50;;
21521;SDS011;10922;45.572;10.002;2023-02-04T10:50:54;14.50;;;10.93;;
21521;SDS011;10922;45.572;10.002;2023-02-04T10:53:22;14.93;;;10.43;;
21521;SDS011;10922;45.572;10.002;2023-02-04T10:56:26;16.08;;;11.60;;
21521;SDS011;10922;45.572;10.002;2023-02-04T10:58:51;18.35;;;11.85;;
21521;SDS011;10922;45.572;10.002;2023-02-04T11:01:17;14.40;;;10.82;;
21521;SDS011;10922;45.572;10.002;2023-02-04T11:03:43;16.70;;;12.52;;
21521;SDS011;10922;45.572;10.002;2023-02-04T11:06:10;18.17;;;13.15;;
21521;SDS011;10922;45.572;10.002;2023-02-04T11:08:37;18.90;;;14.25;;
21521;SDS011;10922;45.572;10.002;2023-02-04T11:18:51;22.05;;;15.55;;
21521;SDS011;10922;45.572;10.002;2023-02-04T11:21:23;18.97;;;14.83;;
21521;SDS011;10922;45.572;10.002;2023-02-04T11:23:50;21.55;;;15.23;;
21521;SDS011;10922;45.572;10.002;2023-02-04T11:26:32;17.65;;;14.02;;
21521;SDS011;10922;45.572;10.002;2023-02-04T11:34:09;16.63;;;13.20;;
21521;SDS011;10922;45.572;10.002;2023-02-04T11:40:01;19.45;;;15.50;;
21521;SDS011;10922;45.572;10.002;2023-02-04T11:47:55;18.85;;;14.30;;
21521;SDS011;10922;45.572;10.002;2023-02-04T11:50:29;19.30;;;14.80;;
21521;SDS011;10922;45.572;10.002;2023-02-04T11:52:58;21.60;;;15.02;;
21521;SDS011;10922;45.572;10.002;2023-02-04T11:55:26;18.98;;;15.35;;
21521;SDS011;10922;45.572;10.002;2023-02-04T11:57:54;19.55;;;14.43;;
21521;SDS011;10922;45.572;10.002;2023-02-04T12:00:30;19.40;;;15.18;;
21521;SDS011;10922;45.572;10.002;2023-02-04T12:03:01;19.98;;;14.50;;
21521;SDS011;10922;45.572;10.002;2023-02-04T12:05:42;19.70;;;14.80;;
21521;SDS011;10922;45.572;10.002;2023-02-04T12:08:33;17.05;;;13.25;;
21521;SDS011;10922;45.572;10.002;2023-02-04T12:13:50;19.30;;;14.32;;
21521;SDS011;10922;45.572;10.002;2023-02-04T12:16:18;17.77;;;14.20;;
21521;SDS011;10922;45.572;10.002;2023-02-04T12:18:44;17.73;;;14.40;;
21521;SDS011;10922;45.572;10.002;2023-02-04T12:21:11;20.38;;;16.25;;
21521;SDS011;10922;45.572;10.002;2023-02-04T12:23:38;19.83;;;15.93;;
21521;SDS011;10922;45.572;10.002;2023-02-04T12:26:09;24.02;;;18.02;;
21521;SDS011;10922;45.572;10.002;2023-02-04T12:28:35;22.43;;;17.63;;
21521;SDS011;10922;45.572;10.002;2023-02-04T12:31:01;23.27;;;17.00;;
21521;SDS011;10922;45.572;10.002;2023-02-04T12:33:26;22.90;;;17.57;;
21521;SDS011;10922;45.572;10.002;2023-02-04T12:35:52;21.98;;;16.90;;
21521;SDS011;10922;45.572;10.002;2023-02-04T12:38:18;20.10;;;16.02;;
21521;SDS011;10922;45.572;10.002;2023-02-04T12:40:45;22.80;;;16.83;;
21521;SDS011;10922;45.572;10.002;2023-02-04T12:43:10;17.83;;;15.23;;
21521;SDS011;10922;45.572;10.002;2023-02-04T12:45:36;20.37;;;15.50;;
21521;SDS011;10922;45.572;10.002;2023-02-04T12:48:04;17.85;;;14.48;;
21521;SDS011;10922;45.572;10.002;2023-02-04T12:50:30;21.02;;;15.05;;
21521;SDS011;10922;45.572;10.002;2023-02-04T12:52:56;18.13;;;14.68;;
21521;SDS011;10922;45.572;10.002;2023-02-04T12:55:24;18.10;;;13.98;;
21521;SDS011;10922;45.572;10.002;2023-02-04T12:57:51;16.43;;;13.67;;
21521;SDS011;10922;45.572;10.002;2023-02-04T13:00:20;17.50;;;14.13;;
21521;SDS011;10922;45.572;10.002;2023-02-04T13:02:47;17.65;;;13.38;;
21521;SDS011;10922;45.572;10.002;2023-02-04T13:05:15;16.23;;;13.38;;
21521;SDS011;10922;45.572;10.002;2023-02-04T13:07:41;15.98;;;12.77;;
21521;SDS011;10922;45.572;10.002;2023-02-04T13:10:10;15.85;;;13.52;;
21521;SDS011;10922;45.572;10.002;2023-02-04T13:12:37;15.00;;;13.13;;
21521;SDS011;10922;45.572;10.002;2023-02-04T13:15:03;15.00;;;12.77;;
21521;SDS011;10922;45.572;10.002;2023-02-04T13:17:30;14.37;;;12.83;;
21521;SDS011;10922;45.572;10.002;2023-02-04T13:19:55;13.30;;;11.87;;
21521;SDS011;10922;45.572;10.002;2023-02-04T13:22:21;14.40;;;11.60;;
21521;SDS011;10922;45.572;10.002;2023-02-04T13:24:48;14.10;;;11.75;;
21521;SDS011;10922;45.572;10.002;2023-02-04T13:27:25;15.15;;;12.02;;
21521;SDS011;10922;45.572;10.002;2023-02-04T13:46:51;15.43;;;11.38;;
21521;SDS011;10922;45.572;10.002;2023-02-04T13:49:17;15.93;;;11.13;;
21521;SDS011;10922;45.572;10.002;2023-02-04T14:06:27;11.40;;;9.40;;
21521;SDS011;10922;45.572;10.002;2023-02-04T14:15:33;12.00;;;9.85;;
21521;SDS011;10922;45.572;10.002;2023-02-04T14:21:20;14.10;;;10.50;;
21521;SDS011;10922;45.572;10.002;2023-02-04T14:34:11;12.23;;;10.05;;
21521;SDS011;10922;45.572;10.002;2023-02-04T14:36:37;13.45;;;10.48;;
21521;SDS011;10922;45.572;10.002;2023-02-04T14:39:03;12.60;;;10.48;;
21521;SDS011;10922;45.572;10.002;2023-02-04T14:41:29;14.07;;;10.57;;
21521;SDS011;10922;45.572;10.002;2023-02-04T14:43:55;14.35;;;10.30;;
21521;SDS011;10922;45.572;10.002;2023-02-04T14:46:21;14.00;;;10.68;;
21521;SDS011;10922;45.572;10.002;2023-02-04T14:48:47;13.23;;;11.07;;
21521;SDS011;10922;45.572;10.002;2023-02-04T14:51:16;13.27;;;11.55;;
21521;SDS011;10922;45.572;10.002;2023-02-04T14:53:42;15.02;;;11.35;;
21521;SDS011;10922;45.572;10.002;2023-02-04T14:56:07;14.10;;;11.25;;
21521;SDS011;10922;45.572;10.002;2023-02-04T14:58:33;17.33;;;11.17;;
21521;SDS011;10922;45.572;10.002;2023-02-04T15:01:04;12.85;;;10.82;;
21521;SDS011;10922;45.572;10.002;2023-02-04T15:03:38;11.98;;;10.77;;
21521;SDS011;10922;45.572;10.002;2023-02-04T15:06:04;13.25;;;11.20;;
21521;SDS011;10922;45.572;10.002;2023-02-04T15:08:30;12.37;;;11.00;;
21521;SDS011;10922;45.572;10.002;2023-02-04T15:11:08;14.00;;;11.45;;
21521;SDS011;10922;45.572;10.002;2023-02-04T16:24:15;26.10;;;17.63;;
21521;SDS011;10922;45.572;10.002;2023-02-04T16:26:42;24.17;;;18.33;;
21521;SDS011;10922;45.572;10.002;2023-02-04T16:29:09;23.70;;;16.70;;
21521;SDS011;10922;45.572;10.002;2023-02-04T16:31:34;18.75;;;15.50;;
21521;SDS011;10922;45.572;10.002;2023-02-04T16:34:00;19.95;;;15.88;;
21521;SDS011;10922;45.572;10.002;2023-02-04T16:36:26;22.27;;;17.67;;
21521;SDS011;10922;45.572;10.002;2023-02-04T16:38:54;19.93;;;16.83;;
21521;SDS011;10922;45.572;10.002;2023-02-04T16:41:22;22.07;;;17.37;;
21521;SDS011;10922;45.572;10.002;2023-02-04T16:43:48;30.23;;;21.73;;
21521;SDS011;10922;45.572;10.002;2023-02-04T16:46:15;26.92;;;18.90;;
21521;SDS011;10922;45.572;10.002;2023-02-04T16:48:41;21.83;;;17.20;;
21521;SDS011;10922;45.572;10.002;2023-02-04T16:51:07;179.77;;;113.43;;
21521;SDS011;10922;45.572;10.002;2023-02-04T16:53:33;74.65;;;47.78;;
21521;SDS011;10922;45.572;10.002;2023-02-04T16:55:59;34.22;;;23.92;;